createdAt,value
2018-06-29T00:01:08.022Z,1013.14
2018-06-29T00:02:07.953Z,1013.15
2018-06-29T00:03:08.177Z,1013.15
2018-06-29T00:04:07.935Z,1013.13
2018-06-29T00:05:08.223Z,1013.16
2018-06-29T00:07:08.038Z,1013.17
2018-06-29T00:08:07.977Z,1013.17
2018-06-29T00:10:08.064Z,1013.16
2018-06-29T00:11:07.837Z,1013.13
2018-06-29T00:12:07.821Z,1013.10
2018-06-29T00:13:07.867Z,1013.12
2018-06-29T00:16:07.769Z,1013.15
2018-06-29T00:17:07.756Z,1013.12
2018-06-29T00:19:07.782Z,1013.12
2018-06-29T00:20:07.716Z,1013.12
2018-06-29T00:21:07.740Z,1013.14
2018-06-29T00:22:07.681Z,1013.12
2018-06-29T00:23:07.668Z,1013.11
2018-06-29T00:25:07.697Z,1013.11
2018-06-29T00:26:07.652Z,1013.06
2018-06-29T00:27:07.616Z,1013.07
2018-06-29T00:28:07.598Z,1013.03
2018-06-29T00:29:07.688Z,1013.01
2018-06-29T00:30:07.580Z,1013.03
2018-06-29T00:32:07.612Z,1013.06
2018-06-29T00:33:07.637Z,1013.05
2018-06-29T00:36:07.785Z,1013.01
2018-06-29T00:37:07.476Z,1013.00
2018-06-29T00:38:07.507Z,1012.98
2018-06-29T00:39:07.442Z,1012.97
2018-06-29T00:40:07.433Z,1013.00
2018-06-29T00:41:07.612Z,1012.95
2018-06-29T00:42:07.405Z,1012.95
2018-06-29T00:43:07.393Z,1012.94
2018-06-29T00:44:07.423Z,1012.92
2018-06-29T00:45:07.368Z,1012.96
2018-06-29T00:46:07.348Z,1012.93
2018-06-29T00:47:07.344Z,1012.95
2018-06-29T00:48:07.316Z,1012.95
2018-06-29T00:49:07.305Z,1012.94
2018-06-29T00:50:07.335Z,1012.97
2018-06-29T00:52:07.261Z,1012.92
2018-06-29T00:53:07.245Z,1012.96
2018-06-29T00:54:07.234Z,1012.92
2018-06-29T00:56:07.263Z,1012.91
2018-06-29T00:58:07.169Z,1012.96
2018-06-29T00:59:07.162Z,1012.94
2018-06-29T01:01:07.129Z,1012.93
2018-06-29T01:02:07.186Z,1012.94
2018-06-29T01:03:07.100Z,1012.95
2018-06-29T01:05:07.375Z,1012.96
2018-06-29T01:06:07.056Z,1012.97
2018-06-29T01:07:07.042Z,1012.98
2018-06-29T01:08:07.095Z,1013.02
2018-06-29T01:09:07.012Z,1012.99
2018-06-29T01:11:07.287Z,1013.01
2018-06-29T01:13:06.953Z,1013.01
2018-06-29T01:14:06.987Z,1013.06
2018-06-29T01:15:06.924Z,1013.02
2018-06-29T01:16:06.941Z,1013.02
2018-06-29T01:17:06.891Z,1013.00
2018-06-29T01:18:06.874Z,1013.00
2018-06-29T01:19:06.864Z,1012.97
2018-06-29T01:20:06.895Z,1012.97
2018-06-29T01:21:06.836Z,1012.93
2018-06-29T01:22:09.850Z,1012.92
2018-06-29T01:23:06.804Z,1012.96
2018-06-29T01:24:06.806Z,1012.93
2018-06-29T01:25:06.774Z,1012.94
2018-06-29T01:26:06.808Z,1012.94
2018-06-29T01:28:06.777Z,1012.97
2018-06-29T01:29:06.816Z,1012.96
2018-06-29T01:30:06.705Z,1013.00
2018-06-29T01:31:06.683Z,1013.01
2018-06-29T01:32:06.744Z,1013.02
2018-06-29T01:33:06.659Z,1013.04
2018-06-29T01:34:06.640Z,1013.04
2018-06-29T01:35:06.628Z,1013.04
2018-06-29T01:36:06.613Z,1013.02
2018-06-29T01:37:06.620Z,1013.01
2018-06-29T01:38:06.631Z,1012.96
2018-06-29T01:40:06.643Z,1012.94
2018-06-29T01:42:06.812Z,1012.91
2018-06-29T01:43:06.500Z,1012.89
2018-06-29T01:44:06.558Z,1012.89
2018-06-29T01:45:06.572Z,1012.92
2018-06-29T01:46:06.461Z,1012.93
2018-06-29T01:47:06.550Z,1012.94
2018-06-29T01:48:06.430Z,1012.94
2018-06-29T01:49:06.417Z,1012.92
2018-06-29T01:50:06.452Z,1012.97
2018-06-29T01:51:06.408Z,1012.96
2018-06-29T01:52:06.373Z,1013.04
2018-06-29T01:53:06.351Z,1013.02
2018-06-29T01:54:06.338Z,1012.96
2018-06-29T01:55:06.373Z,1012.95
2018-06-29T01:56:07.061Z,1012.95
2018-06-29T01:57:06.286Z,1012.93
2018-06-29T01:58:06.283Z,1012.92
2018-06-29T01:59:06.274Z,1012.86
2018-06-29T02:00:06.242Z,1012.87
2018-06-29T02:01:06.229Z,1012.84
2018-06-29T02:02:06.309Z,1012.84
2018-06-29T02:03:06.295Z,1012.76
2018-06-29T02:04:06.186Z,1012.79
2018-06-29T02:05:06.168Z,1012.78
2018-06-29T02:06:06.168Z,1012.75
2018-06-29T02:07:06.135Z,1012.73
2018-06-29T02:08:06.234Z,1012.72
2018-06-29T02:09:06.110Z,1012.68
2018-06-29T02:10:06.200Z,1012.69
2018-06-29T02:11:06.075Z,1012.64
2018-06-29T02:12:06.060Z,1012.62
2018-06-29T02:13:06.045Z,1012.62
2018-06-29T02:14:06.078Z,1012.57
2018-06-29T02:16:06.003Z,1012.57
2018-06-29T02:17:05.988Z,1012.57
2018-06-29T02:18:05.972Z,1012.58
2018-06-29T02:19:05.953Z,1012.58
2018-06-29T02:20:05.988Z,1012.58
2018-06-29T02:21:05.923Z,1012.56
2018-06-29T02:22:05.910Z,1012.57
2018-06-29T02:23:05.907Z,1012.56
2018-06-29T02:24:05.875Z,1012.53
2018-06-29T02:25:05.858Z,1012.54
2018-06-29T02:26:05.899Z,1012.52
2018-06-29T02:28:05.814Z,1012.50
2018-06-29T02:29:05.804Z,1012.50
2018-06-29T02:30:05.781Z,1012.50
2018-06-29T02:31:05.769Z,1012.53
2018-06-29T02:32:05.803Z,1012.50
2018-06-29T02:33:05.738Z,1012.46
2018-06-29T02:34:05.722Z,1012.51
2018-06-29T02:35:05.705Z,1012.50
2018-06-29T02:36:05.689Z,1012.50
2018-06-29T02:37:05.679Z,1012.52
2018-06-29T02:38:05.717Z,1012.52
2018-06-29T02:39:05.640Z,1012.56
2018-06-29T02:40:05.622Z,1012.52
2018-06-29T02:41:05.609Z,1012.50
2018-06-29T02:42:05.618Z,1012.52
2018-06-29T02:44:05.611Z,1012.49
2018-06-29T02:45:05.646Z,1012.50
2018-06-29T02:46:05.533Z,1012.46
2018-06-29T02:48:05.795Z,1012.46
2018-06-29T02:49:05.602Z,1012.44
2018-06-29T02:50:05.524Z,1012.41
2018-06-29T02:51:05.446Z,1012.45
2018-06-29T02:52:05.435Z,1012.40
2018-06-29T02:53:05.419Z,1012.41
2018-06-29T02:55:05.739Z,1012.39
2018-06-29T02:56:05.423Z,1012.37
2018-06-29T02:57:05.361Z,1012.38
2018-06-29T02:58:05.376Z,1012.40
2018-06-29T02:59:05.324Z,1012.39
2018-06-29T03:00:05.320Z,1012.38
2018-06-29T03:01:05.296Z,1012.41
2018-06-29T03:02:05.327Z,1012.46
2018-06-29T03:03:05.261Z,1012.45
2018-06-29T03:04:05.241Z,1012.41
2018-06-29T03:05:05.230Z,1012.41
2018-06-29T03:06:05.217Z,1012.43
2018-06-29T03:07:05.198Z,1012.43
2018-06-29T03:08:05.234Z,1012.40
2018-06-29T03:09:05.171Z,1012.32
2018-06-29T03:11:05.218Z,1012.26
2018-06-29T03:12:05.117Z,1012.26
2018-06-29T03:14:05.384Z,1012.25
2018-06-29T03:16:05.102Z,1012.23
2018-06-29T03:18:05.019Z,1012.21
2018-06-29T03:20:05.337Z,1012.22
2018-06-29T03:22:04.979Z,1012.19
2018-06-29T03:23:04.946Z,1012.24
2018-06-29T03:24:04.924Z,1012.24
2018-06-29T03:25:05.013Z,1012.24
2018-06-29T03:26:04.941Z,1012.19
2018-06-29T03:27:04.876Z,1012.19
2018-06-29T03:28:04.867Z,1012.21
2018-06-29T03:29:04.841Z,1012.21
2018-06-29T03:30:04.929Z,1012.18
2018-06-29T03:31:04.827Z,1012.21
2018-06-29T03:32:04.844Z,1012.23
2018-06-29T03:33:04.809Z,1012.20
2018-06-29T03:34:04.764Z,1012.23
2018-06-29T03:37:04.713Z,1012.23
2018-06-29T03:40:05.023Z,1012.29
2018-06-29T03:41:04.913Z,1012.25
2018-06-29T03:44:04.600Z,1012.27
2018-06-29T03:45:04.586Z,1012.23
2018-06-29T03:46:04.628Z,1012.24
2018-06-29T03:47:04.556Z,1012.21
2018-06-29T03:48:04.541Z,1012.23
2018-06-29T03:49:04.531Z,1012.28
2018-06-29T03:50:04.507Z,1012.26
2018-06-29T03:51:04.490Z,1012.22
2018-06-29T03:52:04.526Z,1012.27
2018-06-29T03:53:04.457Z,1012.26
2018-06-29T03:54:04.445Z,1012.23
2018-06-29T03:55:04.427Z,1012.23
2018-06-29T03:56:04.411Z,1012.19
2018-06-29T03:57:04.399Z,1012.20
2018-06-29T03:58:04.426Z,1012.20
2018-06-29T04:00:04.355Z,1012.16
2018-06-29T04:01:04.382Z,1012.16
2018-06-29T04:02:04.319Z,1012.20
2018-06-29T04:03:04.302Z,1012.17
2018-06-29T04:04:04.336Z,1012.17
2018-06-29T04:05:04.369Z,1012.19
2018-06-29T04:06:04.253Z,1012.23
2018-06-29T04:07:04.237Z,1012.22
2018-06-29T04:08:05.394Z,1012.22
2018-06-29T04:09:04.211Z,1012.23
2018-06-29T04:10:04.241Z,1012.23
2018-06-29T04:11:04.171Z,1012.20
2018-06-29T04:12:04.157Z,1012.24
2018-06-29T04:13:04.138Z,1012.22
2018-06-29T04:14:04.124Z,1012.25
2018-06-29T04:15:04.115Z,1012.29
2018-06-29T04:16:04.145Z,1012.28
2018-06-29T04:17:04.317Z,1012.27
2018-06-29T04:18:04.076Z,1012.25
2018-06-29T04:19:04.054Z,1012.26
2018-06-29T04:20:04.031Z,1012.31
2018-06-29T04:21:04.019Z,1012.32
2018-06-29T04:22:04.150Z,1012.30
2018-06-29T04:24:04.070Z,1012.37
2018-06-29T04:26:03.944Z,1012.37
2018-06-29T04:27:03.922Z,1012.35
2018-06-29T04:29:03.896Z,1012.32
2018-06-29T04:30:03.877Z,1012.35
2018-06-29T04:31:03.933Z,1012.34
2018-06-29T04:32:03.850Z,1012.36
2018-06-29T04:34:03.865Z,1012.25
2018-06-29T04:35:03.798Z,1012.23
2018-06-29T04:36:03.926Z,1012.22
2018-06-29T04:37:03.904Z,1012.23
2018-06-29T04:38:03.766Z,1012.22
2018-06-29T04:39:03.740Z,1012.24
2018-06-29T04:41:03.707Z,1012.29
2018-06-29T04:42:03.794Z,1012.29
2018-06-29T04:43:03.673Z,1012.36
2018-06-29T04:44:03.662Z,1012.33
2018-06-29T04:45:03.748Z,1012.29
2018-06-29T04:46:03.681Z,1012.28
2018-06-29T04:47:03.616Z,1012.34
2018-06-29T04:48:03.762Z,1012.34
2018-06-29T04:50:03.570Z,1012.29
2018-06-29T04:51:03.555Z,1012.31
2018-06-29T04:52:03.589Z,1012.34
2018-06-29T04:53:03.525Z,1012.33
2018-06-29T04:54:03.531Z,1012.29
2018-06-29T04:55:03.495Z,1012.28
2018-06-29T04:56:03.524Z,1012.28
2018-06-29T04:57:03.467Z,1012.30
2018-06-29T04:58:03.503Z,1012.29
2018-06-29T04:59:03.456Z,1012.32
2018-06-29T05:00:03.426Z,1012.31
2018-06-29T05:01:03.561Z,1012.32
2018-06-29T05:02:03.407Z,1012.31
2018-06-29T05:03:03.570Z,1012.26
2018-06-29T05:04:03.431Z,1012.29
2018-06-29T05:05:03.363Z,1012.29
2018-06-29T05:08:03.340Z,1012.29
2018-06-29T05:09:03.300Z,1012.23
2018-06-29T05:10:03.332Z,1012.19
2018-06-29T05:12:03.318Z,1012.24
2018-06-29T05:13:03.244Z,1012.23
2018-06-29T05:14:03.225Z,1012.26
2018-06-29T05:15:03.223Z,1012.27
2018-06-29T05:16:03.248Z,1012.27
2018-06-29T05:17:03.304Z,1012.28
2018-06-29T05:18:03.176Z,1012.28
2018-06-29T05:21:03.442Z,1012.28
2018-06-29T05:22:03.377Z,1012.26
2018-06-29T05:23:03.159Z,1012.22
2018-06-29T05:24:03.097Z,1012.24
2018-06-29T05:25:03.095Z,1012.24
2018-06-29T05:28:03.395Z,1012.23
2018-06-29T05:29:03.023Z,1012.21
2018-06-29T05:32:03.004Z,1012.13
2018-06-29T05:33:03.000Z,1012.12
2018-06-29T05:34:03.016Z,1012.13
2018-06-29T05:35:02.947Z,1012.09
2018-06-29T05:36:02.935Z,1012.13
2018-06-29T05:37:02.939Z,1012.10
2018-06-29T05:38:02.932Z,1012.11
2018-06-29T05:39:02.891Z,1012.08
2018-06-29T05:40:02.938Z,1012.09
2018-06-29T05:41:02.869Z,1012.09
2018-06-29T05:42:02.856Z,1012.10
2018-06-29T05:43:02.844Z,1012.09
2018-06-29T05:44:02.852Z,1012.09
2018-06-29T05:45:02.922Z,1012.05
2018-06-29T05:47:03.171Z,1012.05
2018-06-29T05:48:02.790Z,1012.07
2018-06-29T05:49:02.769Z,1012.08
2018-06-29T05:50:02.805Z,1012.06
2018-06-29T05:51:02.800Z,1012.05
2018-06-29T05:52:02.820Z,1012.01
2018-06-29T05:53:03.438Z,1011.97
2018-06-29T05:54:02.753Z,1012.01
2018-06-29T05:55:02.714Z,1011.99
2018-06-29T05:56:02.715Z,1011.96
2018-06-29T05:58:03.017Z,1012.03
2018-06-29T05:59:02.721Z,1012.05
2018-06-29T06:00:02.714Z,1012.02
2018-06-29T06:02:02.701Z,1012.07
2018-06-29T06:03:02.715Z,1012.08
2018-06-29T06:04:02.839Z,1012.04
2018-06-29T06:05:02.930Z,1012.02
2018-06-29T06:06:02.868Z,1012.05
2018-06-29T06:08:02.537Z,1012.02
2018-06-29T06:09:02.575Z,1012.04
2018-06-29T06:10:03.025Z,1012.02
2018-06-29T06:11:02.609Z,1011.97
2018-06-29T06:12:04.208Z,1011.94
2018-06-29T06:13:03.177Z,1011.94
2018-06-29T06:14:02.903Z,1011.90
2018-06-29T06:15:03.369Z,1011.93
2018-06-29T06:16:02.905Z,1011.91
2018-06-29T06:17:02.555Z,1011.93
2018-06-29T06:18:02.724Z,1011.91
2018-06-29T06:19:02.638Z,1011.87
2018-06-29T06:20:02.669Z,1011.87
2018-06-29T06:21:02.760Z,1011.85
2018-06-29T06:24:02.756Z,1011.85
2018-06-29T06:25:02.877Z,1011.87
2018-06-29T06:26:02.327Z,1011.87
2018-06-29T06:27:02.623Z,1011.87
2018-06-29T06:28:02.976Z,1011.82
2018-06-29T06:29:02.393Z,1011.85
2018-06-29T06:30:03.348Z,1011.82
2018-06-29T06:31:02.750Z,1011.83
2018-06-29T06:33:02.256Z,1011.82
2018-06-29T06:34:03.892Z,1011.88
2018-06-29T06:35:02.315Z,1011.85
2018-06-29T06:36:02.245Z,1011.82
2018-06-29T06:37:02.336Z,1011.83
2018-06-29T06:38:02.312Z,1011.84
2018-06-29T06:39:02.229Z,1011.83
2018-06-29T06:40:02.440Z,1011.89
2018-06-29T06:41:02.325Z,1011.83
2018-06-29T06:42:02.440Z,1011.81
2018-06-29T06:43:02.569Z,1011.80
2018-06-29T06:45:03.107Z,1011.85
2018-06-29T06:46:02.744Z,1011.86
2018-06-29T06:47:02.512Z,1011.87
2018-06-29T06:50:02.822Z,1011.89
2018-06-29T06:51:02.556Z,1011.90
2018-06-29T06:52:02.070Z,1011.91
2018-06-29T06:53:02.991Z,1011.92
2018-06-29T06:54:02.735Z,1011.96
2018-06-29T06:55:02.112Z,1011.97
2018-06-29T06:56:02.110Z,1012.00
2018-06-29T06:57:02.648Z,1012.00
2018-06-29T06:58:02.381Z,1012.00
2018-06-29T06:59:02.621Z,1011.98
2018-06-29T07:00:02.197Z,1011.99
2018-06-29T07:01:02.138Z,1011.95
2018-06-29T07:02:02.524Z,1011.95
2018-06-29T07:03:02.132Z,1012.01
2018-06-29T07:04:01.991Z,1011.99
2018-06-29T07:05:02.279Z,1011.95
2018-06-29T07:06:02.181Z,1011.94
2018-06-29T07:07:02.003Z,1011.90
2018-06-29T07:08:02.688Z,1011.91
2018-06-29T07:09:01.985Z,1011.91
2018-06-29T07:10:01.958Z,1011.90
2018-06-29T07:13:01.979Z,1011.88
2018-06-29T07:14:02.157Z,1011.88
2018-06-29T07:15:02.550Z,1011.88
2018-06-29T09:55:31.981Z,1015.13
2018-06-29T09:56:31.931Z,1014.90
2018-06-29T09:57:31.936Z,1011.45
2018-06-29T09:58:32.134Z,1011.45
2018-06-29T09:59:32.136Z,1011.53
2018-06-29T10:00:32.644Z,1011.41
2018-06-29T10:01:32.122Z,1011.30
2018-06-29T10:03:31.940Z,1011.38
2018-06-29T10:04:31.942Z,1014.01
2018-06-29T10:05:31.935Z,1014.14
2018-06-29T10:06:45.026Z,1014.40
2018-06-29T10:07:32.139Z,1014.88
2018-06-29T10:08:31.942Z,1014.94
2018-06-29T10:09:33.404Z,1015.05
2018-06-29T10:10:31.990Z,1014.85
2018-06-29T10:11:31.940Z,1014.84
2018-06-29T10:12:32.461Z,1014.64
2018-06-29T10:13:31.940Z,1014.65
2018-06-29T10:14:32.049Z,1014.88
2018-06-29T10:15:32.145Z,1015.23
2018-06-29T10:16:32.599Z,1011.28
2018-06-29T10:17:38.275Z,1011.24
2018-06-29T10:18:31.947Z,1011.19
2018-06-29T10:19:32.300Z,1014.92
2018-06-29T10:20:31.955Z,1011.13
2018-06-29T10:21:31.948Z,1014.47
2018-06-29T10:22:32.391Z,1014.28
2018-06-29T10:23:31.949Z,1014.17
2018-06-29T10:24:31.957Z,1011.16
2018-06-29T10:25:32.347Z,1014.05
2018-06-29T10:26:31.958Z,1011.20
2018-06-29T10:28:33.420Z,1011.24
2018-06-29T10:29:31.951Z,1011.16
2018-06-29T10:30:31.953Z,1011.24
2018-06-29T10:31:32.864Z,1011.26
2018-06-29T10:32:31.954Z,1011.31
2018-06-29T10:33:32.216Z,1012.36
2018-06-29T10:34:32.566Z,1011.34
2018-06-29T10:36:32.165Z,1012.16
2018-06-29T10:37:32.304Z,1011.96
2018-06-29T10:38:31.964Z,1011.85
2018-06-29T10:39:32.622Z,1011.69
2018-06-29T10:40:31.969Z,1011.57
2018-06-29T10:41:32.050Z,1011.29
2018-06-29T10:42:31.968Z,1011.19
2018-06-29T10:43:33.687Z,1011.36
2018-06-29T10:44:32.022Z,1011.37
2018-06-29T10:45:32.024Z,1011.39
2018-06-29T10:46:31.986Z,1011.18
2018-06-29T10:47:31.992Z,1011.12
2018-06-29T10:49:32.281Z,1011.39
2018-06-29T10:50:31.982Z,1011.54
2018-06-29T10:51:32.056Z,1011.30
2018-06-29T10:53:31.994Z,1011.59
2018-06-29T10:54:31.989Z,1011.42
2018-06-29T10:55:32.292Z,1011.53
2018-06-29T10:56:31.992Z,1011.43
2018-06-29T10:57:32.345Z,1011.57
2018-06-29T10:58:32.056Z,1011.42
2018-06-29T10:59:31.998Z,1011.64
2018-06-29T11:00:32.003Z,1011.66
2018-06-29T11:01:32.002Z,1011.40
2018-06-29T11:02:32.010Z,1011.16
2018-06-29T11:03:32.082Z,1011.53
2018-06-29T11:04:32.009Z,1011.21
2018-06-29T11:05:32.128Z,1011.54
2018-06-29T11:06:38.277Z,1011.68
2018-06-29T11:07:32.519Z,1011.62
2018-06-29T11:08:32.017Z,1010.77
2018-06-29T11:09:32.681Z,1011.05
2018-06-29T11:10:32.019Z,1011.11
2018-06-29T11:11:32.026Z,1011.54
2018-06-29T11:12:32.022Z,1011.55
2018-06-29T11:13:32.072Z,1010.68
2018-06-29T11:14:32.033Z,1011.16
2018-06-29T11:15:38.307Z,1011.60
2018-06-29T11:16:32.229Z,1011.74
2018-06-29T11:17:32.033Z,1011.08
2018-06-29T11:18:58.003Z,1011.04
2018-06-29T11:19:32.077Z,1011.01
2018-06-29T11:20:32.081Z,1011.67
2018-06-29T11:21:32.033Z,1011.75
2018-06-29T11:22:32.086Z,1010.92
2018-06-29T11:23:32.036Z,1011.00
2018-06-29T11:24:32.338Z,1010.88
2018-06-29T11:25:32.040Z,1010.84
2018-06-29T11:26:32.094Z,1011.46
2018-06-29T11:27:32.043Z,1011.53
2018-06-29T11:28:32.047Z,1011.70
2018-06-29T11:29:32.054Z,1011.44
2018-06-29T11:30:32.359Z,1010.99
2018-06-29T11:31:32.100Z,1011.74
2018-06-29T11:32:32.661Z,1010.71
2018-06-29T11:33:32.058Z,1010.63
2018-06-29T11:34:32.052Z,1010.63
2018-06-29T11:35:32.064Z,1010.69
2018-06-29T11:36:32.357Z,1010.60
2018-06-29T11:37:32.110Z,1010.70
2018-06-29T11:38:32.106Z,1010.72
2018-06-29T11:39:32.061Z,1011.29
2018-06-29T11:40:32.076Z,1011.76
2018-06-29T11:41:32.060Z,1010.88
2018-06-29T11:42:32.097Z,1010.66
2018-06-29T11:43:32.362Z,1010.68
2018-06-29T11:44:32.414Z,1010.61
2018-06-29T11:45:32.064Z,1010.59
2018-06-29T11:46:32.059Z,1010.90
2018-06-29T11:47:32.061Z,1011.24
2018-06-29T11:48:33.482Z,1010.85
2018-06-29T11:49:32.358Z,1010.76
2018-06-29T11:50:32.108Z,1010.39
2018-06-29T11:51:32.923Z,1010.41
2018-06-29T11:52:32.057Z,1010.60
2018-06-29T11:53:35.089Z,1010.64
2018-06-29T11:54:32.056Z,1010.82
2018-06-29T11:55:32.356Z,1010.74
2018-06-29T11:56:32.106Z,1010.67
2018-06-29T11:57:32.054Z,1010.84
2018-06-29T11:58:32.055Z,1010.75
2018-06-29T11:59:33.466Z,1010.69
2018-06-29T12:00:33.499Z,1010.66
2018-06-29T12:01:33.768Z,1010.64
2018-06-29T12:02:32.098Z,1010.89
2018-06-29T12:03:32.045Z,1010.65
2018-06-29T12:04:32.057Z,1010.73
2018-06-29T12:05:32.249Z,1010.66
2018-06-29T12:06:32.096Z,1010.55
2018-06-29T12:07:32.369Z,1010.58
2018-06-29T12:08:32.053Z,1010.53
2018-06-29T12:09:38.346Z,1010.93
2018-06-29T12:10:32.051Z,1010.48
2018-06-29T12:11:32.066Z,1010.57
2018-06-29T12:12:32.109Z,1011.38
2018-06-29T12:13:32.049Z,1011.25
2018-06-29T12:14:32.066Z,1010.53
2018-06-29T12:15:32.054Z,1010.52
2018-06-29T12:16:32.048Z,1010.54
2018-06-29T12:17:32.056Z,1011.13
2018-06-29T12:18:32.102Z,1010.46
2018-06-29T12:19:32.354Z,1011.07
2018-06-29T12:20:32.053Z,1010.48
2018-06-29T12:21:32.062Z,1010.50
2018-06-29T12:22:32.061Z,1010.53
2018-06-29T12:23:32.057Z,1010.95
2018-06-29T12:24:32.429Z,1011.08
2018-06-29T12:25:32.444Z,1010.49
2018-06-29T12:26:32.087Z,1010.41
2018-06-29T12:27:32.057Z,1010.42
2018-06-29T12:28:32.068Z,1010.39
2018-06-29T12:29:32.072Z,1010.42
2018-06-29T12:30:32.115Z,1010.43
2018-06-29T12:31:32.367Z,1010.41
2018-06-29T12:32:32.064Z,1010.92
2018-06-29T12:33:32.070Z,1010.40
2018-06-29T12:34:32.067Z,1010.28
2018-06-29T12:35:32.116Z,1010.43
2018-06-29T12:36:32.071Z,1010.35
2018-06-29T12:37:32.369Z,1010.36
2018-06-29T12:38:32.079Z,1010.31
2018-06-29T12:39:32.071Z,1010.34
2018-06-29T12:40:32.078Z,1010.33
2018-06-29T12:41:32.126Z,1010.36
2018-06-29T12:42:32.073Z,1010.31
2018-06-29T12:43:32.083Z,1010.25
2018-06-29T12:44:32.376Z,1010.28
2018-06-29T12:45:32.082Z,1010.25
2018-06-29T12:46:32.080Z,1010.25
2018-06-29T12:47:32.137Z,1010.29
2018-06-29T12:48:32.080Z,1010.25
2018-06-29T12:49:32.088Z,1010.29
2018-06-29T12:50:32.085Z,1010.20
2018-06-29T12:51:32.443Z,1010.24
2018-06-29T12:52:32.094Z,1010.11
2018-06-29T12:53:32.154Z,1010.20
2018-06-29T12:54:32.103Z,1010.21
2018-06-29T12:55:32.108Z,1010.22
2018-06-29T12:56:32.113Z,1010.13
2018-06-29T12:57:32.410Z,1010.12
2018-06-29T12:58:32.190Z,1010.14
2018-06-29T12:59:32.105Z,1010.07
2018-06-29T13:00:32.106Z,1010.09
2018-06-29T13:01:32.106Z,1010.06
2018-06-29T13:02:32.108Z,1010.01
2018-06-29T13:03:33.822Z,1009.96
2018-06-29T13:04:32.159Z,1009.96
2018-06-29T13:05:32.319Z,1010.16
2018-06-29T13:06:32.112Z,1009.95
2018-06-29T13:07:32.725Z,1009.91
2018-06-29T13:08:32.125Z,1010.07
2018-06-29T13:09:32.426Z,1010.03
2018-06-29T13:10:32.173Z,1010.04
2018-06-29T13:11:32.128Z,1010.32
2018-06-29T13:12:32.126Z,1010.03
2018-06-29T13:13:32.130Z,1010.18
2018-06-29T13:14:32.129Z,1010.22
2018-06-29T13:15:32.433Z,1010.17
2018-06-29T13:16:32.182Z,1010.12
2018-06-29T13:17:32.133Z,1010.13
2018-06-29T13:18:32.138Z,1010.18
2018-06-29T13:19:32.145Z,1010.56
2018-06-29T13:20:32.139Z,1010.23
2018-06-29T13:21:32.443Z,1010.42
2018-06-29T13:22:32.493Z,1010.04
2018-06-29T13:23:33.559Z,1010.19
2018-06-29T13:24:32.754Z,1010.07
2018-06-29T13:25:32.199Z,1010.02
2018-06-29T13:26:32.151Z,1010.16
2018-06-29T13:27:32.656Z,1010.14
2018-06-29T13:28:32.772Z,1010.03
2018-06-29T13:29:33.573Z,1010.08
2018-06-29T13:30:33.585Z,1010.35
2018-06-29T13:31:33.630Z,1010.15
2018-06-29T13:32:33.585Z,1010.09
2018-06-29T13:33:32.670Z,1010.00
2018-06-29T13:34:32.367Z,1010.06
2018-06-29T13:35:32.173Z,1010.03
2018-06-29T13:36:32.776Z,1010.01
2018-06-29T13:37:32.221Z,1009.95
2018-06-29T13:38:33.603Z,1010.28
2018-06-29T13:39:32.484Z,1010.07
2018-06-29T13:40:32.178Z,1010.05
2018-06-29T13:41:32.185Z,1010.04
2018-06-29T13:42:32.183Z,1010.04
2018-06-29T13:43:32.233Z,1009.98
2018-06-29T13:44:32.222Z,1009.88
2018-06-29T13:45:32.506Z,1009.91
2018-06-29T13:46:32.283Z,1009.90
2018-06-29T13:47:32.202Z,1009.91
2018-06-29T13:48:32.195Z,1009.95
2018-06-29T13:49:32.267Z,1009.94
2018-06-29T13:50:32.246Z,1009.98
2018-06-29T13:51:32.203Z,1010.00
2018-06-29T13:52:32.199Z,1009.92
2018-06-29T13:53:32.209Z,1009.92
2018-06-29T13:54:32.205Z,1009.89
2018-06-29T13:55:32.410Z,1009.88
2018-06-29T13:56:32.258Z,1009.90
2018-06-29T13:57:32.264Z,1009.86
2018-06-29T13:58:32.224Z,1009.83
2018-06-29T13:59:32.218Z,1009.81
2018-06-29T14:00:32.841Z,1009.78
2018-06-29T14:01:32.219Z,1009.81
2018-06-29T14:02:32.950Z,1009.79
2018-06-29T14:03:32.223Z,1009.83
2018-06-29T14:04:32.231Z,1009.83
2018-06-29T14:05:32.226Z,1009.88
2018-06-29T14:06:32.228Z,1009.76
2018-06-29T14:07:32.442Z,1009.76
2018-06-29T14:08:32.283Z,1010.20
2018-06-29T14:09:32.537Z,1009.71
2018-06-29T14:10:32.238Z,1010.05
2018-06-29T14:11:32.309Z,1010.13
2018-06-29T14:12:32.252Z,1009.71
2018-06-29T14:13:32.247Z,1010.16
2018-06-29T14:14:32.297Z,1009.76
2018-06-29T14:15:32.551Z,1009.80
2018-06-29T14:16:35.305Z,1009.71
2018-06-29T14:17:33.671Z,1009.76
2018-06-29T14:18:32.258Z,1010.30
2018-06-29T14:19:32.313Z,1010.31
2018-06-29T14:20:32.259Z,1010.21
2018-06-29T14:21:32.265Z,1009.76
2018-06-29T14:22:32.567Z,1010.14
2018-06-29T14:23:32.269Z,1009.81
2018-06-29T14:24:45.357Z,1009.84
2018-06-29T14:25:32.274Z,1009.87
2018-06-29T14:26:32.277Z,1010.15
2018-06-29T14:27:32.287Z,1010.12
2018-06-29T14:28:32.580Z,1009.82
2018-06-29T14:29:32.281Z,1009.94
2018-06-29T14:30:32.333Z,1009.62
2018-06-29T14:31:32.285Z,1009.49
2018-06-29T14:32:32.288Z,1009.74
2018-06-29T14:33:32.295Z,1009.69
2018-06-29T14:34:32.598Z,1009.61
2018-06-29T14:35:32.313Z,1009.54
2018-06-29T14:36:32.358Z,1009.53
2018-06-29T14:37:32.300Z,1009.60
2018-06-29T14:38:32.303Z,1009.61
2018-06-29T14:39:32.305Z,1009.57
2018-06-29T14:40:32.606Z,1009.57
2018-06-29T14:41:32.371Z,1009.64
2018-06-29T14:42:32.310Z,1009.58
2018-06-29T14:43:32.917Z,1009.58
2018-06-29T14:44:32.314Z,1009.59
2018-06-29T14:45:32.313Z,1009.64
2018-06-29T14:46:32.651Z,1009.54
2018-06-29T14:47:32.667Z,1009.54
2018-06-29T14:48:32.320Z,1009.52
2018-06-29T14:49:32.343Z,1009.48
2018-06-29T14:50:32.321Z,1009.51
2018-06-29T14:51:32.320Z,1009.58
2018-06-29T14:52:32.624Z,1009.65
2018-06-29T14:53:32.382Z,1009.60
2018-06-29T14:54:32.326Z,1009.69
2018-06-29T14:55:32.328Z,1009.72
2018-06-29T14:56:32.327Z,1009.72
2018-06-29T14:57:45.066Z,1009.72
2018-06-29T14:58:32.627Z,1009.69
2018-06-29T14:59:32.328Z,1009.74
2018-06-29T15:00:32.334Z,1009.63
2018-06-29T15:01:32.535Z,1009.59
2018-06-29T15:02:32.533Z,1009.49
2018-06-29T15:03:32.330Z,1009.54
2018-06-29T15:04:32.393Z,1009.58
2018-06-29T15:05:32.357Z,1009.58
2018-06-29T15:06:32.334Z,1009.49
2018-06-29T15:07:32.336Z,1009.49
2018-06-29T15:08:32.339Z,1009.47
2018-06-29T15:09:32.453Z,1009.43
2018-06-29T15:10:32.349Z,1009.41
2018-06-29T15:11:32.337Z,1009.51
2018-06-29T15:12:32.336Z,1009.44
2018-06-29T15:13:32.337Z,1009.59
2018-06-29T15:14:32.343Z,1009.63
2018-06-29T15:15:32.389Z,1009.65
2018-06-29T15:16:32.662Z,1009.60
2018-06-29T15:17:32.342Z,1009.68
2018-06-29T15:18:32.342Z,1009.53
2018-06-29T15:19:32.340Z,1009.28
2018-06-29T15:20:32.341Z,1009.33
2018-06-29T15:21:32.415Z,1009.37
2018-06-29T15:22:32.338Z,1009.41
2018-06-29T15:23:32.338Z,1009.36
2018-06-29T15:24:33.766Z,1009.41
2018-06-29T15:25:32.343Z,1009.51
2018-06-29T15:26:32.945Z,1009.49
2018-06-29T15:27:32.488Z,1009.38
2018-06-29T15:28:32.339Z,1009.23
2018-06-29T15:29:32.541Z,1009.36
2018-06-29T15:30:32.340Z,1009.63
2018-06-29T15:31:32.633Z,1009.90
2018-06-29T15:32:32.338Z,1009.59
2018-06-29T15:33:32.444Z,1009.96
2018-06-29T15:34:32.547Z,1010.09
2018-06-29T15:35:32.639Z,1009.57
2018-06-29T15:36:32.334Z,1009.79
2018-06-29T15:37:32.334Z,1009.93
2018-06-29T15:38:32.385Z,1009.73
2018-06-29T15:39:32.359Z,1009.98
2018-06-29T15:40:32.352Z,1009.45
2018-06-29T15:41:32.638Z,1009.85
2018-06-29T15:42:32.337Z,1009.74
2018-06-29T15:43:35.402Z,1009.73
2018-06-29T15:44:32.683Z,1009.63
2018-06-29T15:45:32.338Z,1009.53
2018-06-29T15:46:32.352Z,1010.00
2018-06-29T15:47:32.630Z,1009.80
2018-06-29T15:48:32.334Z,1009.86
2018-06-29T15:49:32.349Z,1009.93
2018-06-29T15:50:32.379Z,1010.20
2018-06-29T15:51:32.327Z,1010.37
2018-06-29T15:52:32.333Z,1010.40
2018-06-29T15:53:32.326Z,1009.58
2018-06-29T15:54:51.833Z,1010.09